Time;durP1;ratioP1;P1;durP2;ratioP2;P2;SDS_P1;SDS_P2;PMS_P1;PMS_P2;Temp;Humidity;BMP_temperature;BMP_pressure;BME280_temperature;BME280_humidity;BME280_pressure;Samples;Min_cycle;Max_cycle;Signal;HPM_P1;HPM_P2
2021/09/26 00:00:21;;;;;;;9.90;8.20;;;;;;;;;;5033420;28;20465;-58
2021/09/26 00:02:48;;;;;;;8.37;7.57;;;;;;;;;;5033337;28;20508;-60
2021/09/26 00:05:15;;;;;;;9.00;8.10;;;;;;;;;;5034053;28;20453;-59
2021/09/26 00:07:43;;;;;;;8.00;7.20;;;;;;;;;;5033613;28;20504;-59
2021/09/26 00:12:41;;;;;;;16.43;7.80;;;;;;;;;;5051902;28;20522;-59
2021/09/26 00:15:09;;;;;;;10.23;7.90;;;;;;;;;;5052875;28;20444;-61
2021/09/26 00:17:36;;;;;;;10.47;8.40;;;;;;;;;;5053038;28;20449;-61
2021/09/26 00:20:04;;;;;;;9.13;8.20;;;;;;;;;;5052668;28;20440;-61
2021/09/26 00:22:32;;;;;;;8.27;7.47;;;;;;;;;;5053071;28;20498;-59
2021/09/26 00:24:59;;;;;;;8.83;7.67;;;;;;;;;;5056137;28;20924;-60
2021/09/26 00:27:26;;;;;;;9.27;8.37;;;;;;;;;;5057346;28;20436;-61
2021/09/26 00:29:55;;;;;;;10.17;7.70;;;;;;;;;;5057196;28;20454;-61
2021/09/26 00:32:22;;;;;;;7.93;7.13;;;;;;;;;;5057070;28;20518;-61
2021/09/26 00:34:49;;;;;;;10.83;7.73;;;;;;;;;;5056922;28;20476;-61
2021/09/26 00:37:16;;;;;;;8.70;7.80;;;;;;;;;;5056758;28;20940;-60
2021/09/26 00:39:44;;;;;;;7.60;6.90;;;;;;;;;;5056896;28;20932;-61
2021/09/26 00:42:11;;;;;;;8.60;7.57;;;;;;;;;;5056947;28;20470;-61
2021/09/26 00:44:38;;;;;;;9.47;7.20;;;;;;;;;;5057048;28;20439;-61
2021/09/26 00:47:07;;;;;;;8.47;7.17;;;;;;;;;;5056405;28;20440;-62
2021/09/26 00:49:34;;;;;;;10.70;7.80;;;;;;;;;;5056395;28;20993;-61
2021/09/26 00:52:01;;;;;;;9.60;8.20;;;;;;;;;;5056375;28;20521;-60
2021/09/26 00:54:28;;;;;;;9.57;8.00;;;;;;;;;;5056503;28;20526;-61
2021/09/26 00:56:55;;;;;;;9.50;8.50;;;;;;;;;;5056486;28;20516;-60
2021/09/26 00:59:23;;;;;;;8.90;8.00;;;;;;;;;;5056676;28;20941;-61
2021/09/26 01:01:50;;;;;;;10.40;8.00;;;;;;;;;;5057388;28;20458;-60
2021/09/26 01:04:19;;;;;;;11.13;7.87;;;;;;;;;;5058575;28;20444;-60
2021/09/26 01:06:51;;;;;;;8.80;7.70;;;;;;;;;;5056493;28;20448;-61
2021/09/26 01:09:23;;;;;;;10.43;7.50;;;;;;;;;;5056397;28;20849;-60
2021/09/26 01:11:55;;;;;;;10.70;8.20;;;;;;;;;;5056037;28;20898;-60
2021/09/26 01:14:25;;;;;;;9.27;7.80;;;;;;;;;;5056246;28;20882;-61
2021/09/26 01:17:01;;;;;;;9.87;7.97;;;;;;;;;;5056252;28;20439;-60
2021/09/26 01:19:41;;;;;;;8.20;7.37;;;;;;;;;;5056416;28;20490;-60
2021/09/26 01:22:11;;;;;;;8.00;7.20;;;;;;;;;;5056333;28;20467;-61
2021/09/26 01:25:00;;;;;;;8.90;8.00;;;;;;;;;;5056519;28;20429;-62
2021/09/26 01:27:31;;;;;;;9.60;8.10;;;;;;;;;;5055978;28;20523;-61
2021/09/26 01:30:13;;;;;;;8.70;7.80;;;;;;;;;;5056060;28;20429;-62
2021/09/26 01:32:43;;;;;;;9.20;7.40;;;;;;;;;;5053643;28;20449;-61
2021/09/26 01:35:13;;;;;;;9.23;7.70;;;;;;;;;;5055061;28;20479;-61
2021/09/26 01:37:43;;;;;;;8.43;7.60;;;;;;;;;;5055463;28;20483;-61
2021/09/26 01:40:13;;;;;;;8.83;7.90;;;;;;;;;;5056004;28;20451;-60
2021/09/26 01:42:45;;;;;;;8.87;7.70;;;;;;;;;;5055846;28;20482;-61
2021/09/26 01:45:15;;;;;;;9.20;6.90;;;;;;;;;;5055732;28;20428;-60
2021/09/26 01:47:45;;;;;;;9.30;7.83;;;;;;;;;;5055365;28;20483;-61
2021/09/26 01:50:14;;;;;;;8.60;7.70;;;;;;;;;;5055910;28;20439;-62
2021/09/26 01:52:42;;;;;;;8.63;7.83;;;;;;;;;;5056020;28;20537;-60
2021/09/26 01:55:10;;;;;;;10.00;7.80;;;;;;;;;;5056040;28;20550;-61
2021/09/26 01:57:40;;;;;;;8.50;7.57;;;;;;;;;;5055847;28;20799;-61
2021/09/26 02:00:08;;;;;;;9.73;7.80;;;;;;;;;;5056137;28;20857;-66
2021/09/26 02:02:37;;;;;;;8.87;7.40;;;;;;;;;;5055887;28;20436;-61
2021/09/26 02:05:07;;;;;;;9.17;8.23;;;;;;;;;;5055623;28;20436;-61
2021/09/26 02:07:35;;;;;;;10.20;7.90;;;;;;;;;;5055403;28;20441;-61
2021/09/26 02:10:03;;;;;;;8.90;7.00;;;;;;;;;;5055320;28;20447;-61
2021/09/26 02:12:30;;;;;;;9.67;8.10;;;;;;;;;;5054920;28;20849;-61
2021/09/26 02:14:58;;;;;;;9.87;7.73;;;;;;;;;;5054875;28;20483;-61
2021/09/26 02:17:27;;;;;;;8.90;8.00;;;;;;;;;;5054864;28;20501;-61
2021/09/26 02:19:58;;;;;;;10.13;7.67;;;;;;;;;;5055188;28;20457;-61
2021/09/26 02:22:27;;;;;;;8.43;7.63;;;;;;;;;;5055102;28;20502;-61
2021/09/26 02:24:54;;;;;;;8.60;7.73;;;;;;;;;;5055077;28;20443;-62
2021/09/26 02:27:22;;;;;;;9.00;8.00;;;;;;;;;;5055028;28;20451;-61
2021/09/26 02:29:49;;;;;;;9.60;8.60;;;;;;;;;;5054997;28;20502;-61
2021/09/26 02:32:16;;;;;;;8.20;7.40;;;;;;;;;;5054437;28;20508;-61
2021/09/26 02:34:43;;;;;;;9.53;8.10;;;;;;;;;;5054817;28;20482;-61
2021/09/26 02:37:11;;;;;;;9.80;7.43;;;;;;;;;;5054454;28;20454;-61
2021/09/26 02:39:39;;;;;;;9.63;7.70;;;;;;;;;;5054738;28;20440;-61
2021/09/26 02:42:11;;;;;;;10.40;7.70;;;;;;;;;;5054569;28;20466;-62
2021/09/26 02:44:41;;;;;;;12.20;8.60;;;;;;;;;;5054574;28;20425;-61
2021/09/26 02:47:10;;;;;;;11.47;8.27;;;;;;;;;;5053735;28;20492;-61
2021/09/26 02:49:38;;;;;;;10.23;8.27;;;;;;;;;;5054218;28;20498;-61
2021/09/26 02:52:07;;;;;;;12.90;7.80;;;;;;;;;;5054387;28;20895;-61
2021/09/26 02:54:36;;;;;;;9.63;8.03;;;;;;;;;;5054078;28;20475;-61
2021/09/26 02:57:06;;;;;;;12.83;7.83;;;;;;;;;;5054266;28;20501;-61
2021/09/26 02:59:33;;;;;;;8.60;7.30;;;;;;;;;;5054391;28;20449;-62
2021/09/26 03:02:02;;;;;;;8.30;7.47;;;;;;;;;;5054113;28;20471;-61
2021/09/26 03:04:29;;;;;;;11.27;9.20;;;;;;;;;;5054003;28;20947;-62
2021/09/26 03:06:56;;;;;;;13.57;7.33;;;;;;;;;;5054239;28;20448;-62
2021/09/26 03:09:24;;;;;;;10.17;9.10;;;;;;;;;;5054387;28;20500;-62
2021/09/26 03:11:52;;;;;;;10.10;8.60;;;;;;;;;;5053827;28;20482;-62
2021/09/26 03:14:20;;;;;;;11.60;8.27;;;;;;;;;;5053834;28;20999;-62
2021/09/26 03:16:47;;;;;;;9.23;8.20;;;;;;;;;;5054588;28;20455;-61
2021/09/26 03:19:15;;;;;;;9.97;8.73;;;;;;;;;;5053829;28;20856;-61
2021/09/26 03:21:42;;;;;;;10.10;8.87;;;;;;;;;;5053976;28;20466;-60
2021/09/26 03:24:09;;;;;;;13.37;9.27;;;;;;;;;;5054182;28;20444;-61
2021/09/26 03:26:36;;;;;;;9.30;8.37;;;;;;;;;;5053571;28;20448;-61
2021/09/26 03:29:04;;;;;;;12.63;9.07;;;;;;;;;;5053489;28;20449;-61
2021/09/26 03:31:32;;;;;;;8.57;7.73;;;;;;;;;;5053988;28;20526;-61
2021/09/26 03:34:00;;;;;;;9.67;8.57;;;;;;;;;;5053879;28;20472;-61
2021/09/26 03:36:27;;;;;;;12.10;8.70;;;;;;;;;;5053765;28;20446;-61
2021/09/26 03:38:54;;;;;;;12.43;8.90;;;;;;;;;;5054091;28;20518;-61
2021/09/26 03:41:21;;;;;;;13.30;9.33;;;;;;;;;;5055011;28;20478;-61
2021/09/26 03:43:48;;;;;;;12.37;9.50;;;;;;;;;;5054250;28;20497;-60
2021/09/26 03:46:16;;;;;;;11.00;9.03;;;;;;;;;;5053769;28;20480;-61
2021/09/26 03:48:44;;;;;;;14.10;10.37;;;;;;;;;;5053665;28;20448;-61
2021/09/26 03:51:11;;;;;;;10.10;9.00;;;;;;;;;;5053438;28;20466;-61
2021/09/26 03:53:39;;;;;;;11.90;9.27;;;;;;;;;;5053732;28;20855;-61
2021/09/26 03:56:06;;;;;;;10.10;8.70;;;;;;;;;;5053597;28;20504;-62
2021/09/26 03:58:33;;;;;;;12.87;10.30;;;;;;;;;;5054451;28;20498;-62
2021/09/26 04:01:01;;;;;;;11.47;9.40;;;;;;;;;;5053865;28;20514;-61
2021/09/26 04:03:28;;;;;;;12.57;9.43;;;;;;;;;;5053684;28;20441;-61
2021/09/26 04:08:38;;;;;;;15.30;9.47;;;;;;;;;;5100954;27;20544;-61
2021/09/26 04:11:06;;;;;;;13.03;9.13;;;;;;;;;;5091345;28;20518;-61
2021/09/26 04:13:33;;;;;;;11.87;8.90;;;;;;;;;;5091313;28;20449;-61
2021/09/26 04:16:01;;;;;;;12.27;9.53;;;;;;;;;;5090843;28;20869;-62
2021/09/26 04:18:28;;;;;;;12.83;10.03;;;;;;;;;;5090675;28;20453;-62
2021/09/26 04:20:55;;;;;;;10.30;9.20;;;;;;;;;;5091317;28;20526;-61
2021/09/26 04:23:22;;;;;;;10.90;9.10;;;;;;;;;;5090403;28;20512;-61
2021/09/26 04:25:51;;;;;;;14.40;9.20;;;;;;;;;;5090440;28;20466;-63
2021/09/26 04:28:18;;;;;;;11.30;10.13;;;;;;;;;;5090577;28;20474;-61
2021/09/26 04:30:45;;;;;;;11.93;10.43;;;;;;;;;;5090603;28;20512;-62
2021/09/26 04:33:13;;;;;;;11.07;9.97;;;;;;;;;;5090347;28;20496;-62
2021/09/26 04:35:40;;;;;;;11.63;9.53;;;;;;;;;;5091604;28;20449;-62
2021/09/26 04:38:07;;;;;;;10.60;9.13;;;;;;;;;;5090514;28;20518;-61
2021/09/26 04:40:35;;;;;;;11.43;9.30;;;;;;;;;;5090666;28;20474;-61
2021/09/26 04:43:04;;;;;;;12.43;10.13;;;;;;;;;;5090286;28;20960;-61
2021/09/26 04:45:31;;;;;;;12.73;10.70;;;;;;;;;;5090460;28;20500;-61
2021/09/26 04:47:58;;;;;;;11.70;10.40;;;;;;;;;;5090108;28;20528;-62
2021/09/26 04:50:26;;;;;;;12.00;9.67;;;;;;;;;;5090388;28;20520;-62
2021/09/26 04:52:53;;;;;;;11.90;9.40;;;;;;;;;;5090574;28;20452;-61
2021/09/26 04:55:24;;;;;;;11.80;10.60;;;;;;;;;;5090550;28;20936;-62
2021/09/26 04:57:51;;;;;;;14.13;10.50;;;;;;;;;;5102943;28;20446;-62
2021/09/26 05:00:20;;;;;;;12.10;9.70;;;;;;;;;;5103969;28;20447;-62
2021/09/26 05:02:47;;;;;;;12.10;10.00;;;;;;;;;;5103056;28;20451;-61
2021/09/26 05:05:15;;;;;;;10.77;9.63;;;;;;;;;;5091905;28;20449;-61
2021/09/26 05:07:42;;;;;;;12.97;9.50;;;;;;;;;;5089910;28;20479;-62
2021/09/26 05:10:10;;;;;;;11.60;10.10;;;;;;;;;;5090371;28;20439;-62
2021/09/26 05:12:37;;;;;;;15.53;10.60;;;;;;;;;;5089977;28;20508;-62
2021/09/26 05:15:05;;;;;;;11.90;9.30;;;;;;;;;;5089755;28;20449;-61
2021/09/26 05:17:34;;;;;;;13.23;11.20;;;;;;;;;;5090151;28;20496;-60
2021/09/26 05:20:02;;;;;;;12.90;9.07;;;;;;;;;;5075875;28;20508;-61
2021/09/26 05:22:29;;;;;;;14.13;10.40;;;;;;;;;;5076204;28;20443;-62
2021/09/26 05:24:57;;;;;;;10.70;9.10;;;;;;;;;;5076521;28;20498;-62
2021/09/26 05:27:24;;;;;;;10.67;9.57;;;;;;;;;;5076884;28;21046;-62
2021/09/26 05:29:51;;;;;;;12.60;11.10;;;;;;;;;;5077036;28;20503;-61
2021/09/26 05:32:19;;;;;;;12.03;10.77;;;;;;;;;;5077709;28;20528;-61
2021/09/26 05:34:47;;;;;;;11.40;9.20;;;;;;;;;;5078483;28;20855;-63
2021/09/26 05:37:15;;;;;;;9.97;8.97;;;;;;;;;;5077467;28;20436;-62
2021/09/26 05:39:42;;;;;;;11.73;9.70;;;;;;;;;;5077897;28;20450;-62
2021/09/26 05:42:09;;;;;;;11.03;9.33;;;;;;;;;;5076677;28;20995;-62
2021/09/26 05:44:37;;;;;;;11.40;9.30;;;;;;;;;;5076646;28;20816;-61
2021/09/26 05:47:07;;;;;;;13.73;10.30;;;;;;;;;;5076028;28;20477;-61
2021/09/26 05:49:36;;;;;;;10.03;9.03;;;;;;;;;;5076902;28;20451;-60
2021/09/26 05:52:06;;;;;;;15.03;8.43;;;;;;;;;;5076527;28;20967;-61
2021/09/26 05:54:33;;;;;;;11.13;8.83;;;;;;;;;;5076090;28;20476;-63
2021/09/26 05:57:00;;;;;;;10.23;8.97;;;;;;;;;;5076738;28;20508;-62
2021/09/26 05:59:28;;;;;;;10.57;8.60;;;;;;;;;;5078471;28;20501;-62
2021/09/26 06:01:55;;;;;;;9.20;8.20;;;;;;;;;;5082545;28;20465;-63
2021/09/26 06:04:22;;;;;;;9.40;8.40;;;;;;;;;;5081352;28;20506;-63
2021/09/26 06:06:49;;;;;;;9.77;8.77;;;;;;;;;;5076028;28;20935;-63
2021/09/26 06:09:18;;;;;;;9.60;8.43;;;;;;;;;;5075587;28;20446;-62
2021/09/26 06:11:45;;;;;;;9.23;7.90;;;;;;;;;;5077134;28;20536;-62
2021/09/26 06:14:13;;;;;;;8.63;7.73;;;;;;;;;;5080143;28;20543;-66
2021/09/26 06:16:40;;;;;;;9.43;8.10;;;;;;;;;;5079816;28;20459;-62
2021/09/26 06:19:07;;;;;;;8.50;7.60;;;;;;;;;;5076935;28;20493;-62
2021/09/26 06:21:35;;;;;;;8.70;7.80;;;;;;;;;;5077678;28;20534;-61
2021/09/26 06:24:02;;;;;;;7.90;6.83;;;;;;;;;;5077021;28;20511;-63
2021/09/26 06:26:30;;;;;;;8.60;6.80;;;;;;;;;;5076734;28;20473;-62
2021/09/26 06:28:58;;;;;;;10.23;7.33;;;;;;;;;;5076043;28;20544;-62
2021/09/26 06:31:25;;;;;;;7.90;7.10;;;;;;;;;;5075606;28;20475;-64
2021/09/26 06:33:52;;;;;;;8.70;7.80;;;;;;;;;;5076159;28;20448;-63
2021/09/26 06:36:19;;;;;;;8.17;7.30;;;;;;;;;;5075094;28;20454;-63
2021/09/26 06:38:47;;;;;;;8.60;7.80;;;;;;;;;;5074798;28;20508;-63
2021/09/26 06:41:15;;;;;;;8.17;7.47;;;;;;;;;;5074702;28;20475;-61
2021/09/26 06:43:43;;;;;;;7.60;6.90;;;;;;;;;;5074400;28;20446;-63
2021/09/26 06:46:11;;;;;;;11.00;8.30;;;;;;;;;;5074437;28;20498;-62
2021/09/26 06:48:38;;;;;;;7.83;6.50;;;;;;;;;;5074289;28;20474;-63
2021/09/26 06:51:05;;;;;;;9.37;7.27;;;;;;;;;;5074127;28;20975;-62
2021/09/26 06:53:32;;;;;;;7.90;7.10;;;;;;;;;;5076345;28;20443;-63
2021/09/26 06:56:00;;;;;;;7.50;6.80;;;;;;;;;;5074619;28;20454;-62
2021/09/26 06:58:27;;;;;;;7.53;6.83;;;;;;;;;;5073858;28;20931;-62
2021/09/26 07:00:55;;;;;;;8.93;8.10;;;;;;;;;;5074258;28;20463;-63
2021/09/26 07:03:23;;;;;;;8.70;7.90;;;;;;;;;;5073915;28;21021;-62
2021/09/26 07:05:50;;;;;;;7.97;6.80;;;;;;;;;;5074242;28;20446;-62
2021/09/26 07:08:17;;;;;;;8.20;6.50;;;;;;;;;;5073506;28;20901;-62
2021/09/26 07:10:44;;;;;;;7.70;7.00;;;;;;;;;;5073501;28;20513;-63
2021/09/26 07:13:12;;;;;;;6.40;5.80;;;;;;;;;;5073819;28;20449;-63
2021/09/26 07:15:39;;;;;;;7.10;6.47;;;;;;;;;;5073536;28;20452;-63
2021/09/26 07:18:08;;;;;;;6.60;6.00;;;;;;;;;;5073837;28;20436;-62
2021/09/26 07:20:35;;;;;;;7.43;6.67;;;;;;;;;;5073939;28;20521;-62
2021/09/26 07:23:03;;;;;;;7.97;7.20;;;;;;;;;;5074042;28;20444;-63
2021/09/26 07:25:30;;;;;;;10.57;7.43;;;;;;;;;;5073489;28;20444;-63
2021/09/26 07:27:58;;;;;;;8.40;7.57;;;;;;;;;;5073667;28;20944;-63
2021/09/26 07:30:25;;;;;;;7.47;6.70;;;;;;;;;;5073405;28;20472;-62
2021/09/26 07:32:52;;;;;;;6.83;6.13;;;;;;;;;;5073716;28;20449;-61
2021/09/26 07:35:21;;;;;;;7.17;6.00;;;;;;;;;;5073535;28;20475;-62
2021/09/26 07:37:48;;;;;;;7.13;5.93;;;;;;;;;;5073304;28;20442;-62
2021/09/26 07:40:16;;;;;;;5.33;4.83;;;;;;;;;;5073437;28;20445;-62
2021/09/26 07:42:43;;;;;;;6.00;5.40;;;;;;;;;;5073939;28;20445;-63
2021/09/26 07:45:13;;;;;;;7.63;6.10;;;;;;;;;;5076621;28;20440;-63
2021/09/26 07:47:41;;;;;;;7.60;5.90;;;;;;;;;;5077796;28;20518;-63
2021/09/26 07:50:09;;;;;;;5.70;5.10;;;;;;;;;;5075972;28;20441;-63
2021/09/26 07:52:37;;;;;;;5.87;5.07;;;;;;;;;;5075830;28;20499;-63
2021/09/26 07:55:05;;;;;;;6.47;5.47;;;;;;;;;;5074875;28;20466;-63
2021/09/26 07:57:32;;;;;;;6.23;4.70;;;;;;;;;;5073673;28;20446;-62
2021/09/26 08:00:00;;;;;;;5.23;4.73;;;;;;;;;;5073565;28;20464;-61
2021/09/26 08:02:27;;;;;;;6.83;5.77;;;;;;;;;;5073342;28;20470;-63
2021/09/26 08:04:55;;;;;;;6.47;5.57;;;;;;;;;;5072880;28;20898;-63
2021/09/26 08:07:22;;;;;;;7.87;5.47;;;;;;;;;;5072610;28;20450;-63
2021/09/26 08:09:50;;;;;;;5.30;4.80;;;;;;;;;;5073026;28;20452;-63
2021/09/26 08:12:18;;;;;;;4.77;4.37;;;;;;;;;;5073126;28;20491;-63
2021/09/26 08:14:45;;;;;;;5.40;4.70;;;;;;;;;;5072878;28;20507;-63
2021/09/26 08:17:12;;;;;;;5.30;4.80;;;;;;;;;;5073767;28;20503;-62
2021/09/26 08:19:39;;;;;;;4.80;4.30;;;;;;;;;;5073932;28;20509;-62
2021/09/26 08:22:07;;;;;;;6.60;4.80;;;;;;;;;;5073080;28;20969;-62
2021/09/26 08:24:35;;;;;;;5.33;4.83;;;;;;;;;;5073082;28;20501;-63
2021/09/26 08:27:04;;;;;;;5.50;5.00;;;;;;;;;;5072984;28;20446;-62
2021/09/26 08:29:32;;;;;;;4.70;4.30;;;;;;;;;;5072880;28;20490;-62
2021/09/26 08:31:59;;;;;;;5.90;5.27;;;;;;;;;;5072762;28;20466;-62
2021/09/26 08:34:26;;;;;;;6.13;4.73;;;;;;;;;;5072674;28;20954;-62
2021/09/26 08:36:53;;;;;;;5.33;4.83;;;;;;;;;;5072832;28;20513;-63
2021/09/26 08:39:21;;;;;;;6.07;4.30;;;;;;;;;;5073054;28;20478;-63
2021/09/26 08:41:51;;;;;;;5.10;4.50;;;;;;;;;;5072556;28;20473;-63
2021/09/26 08:44:21;;;;;;;6.00;4.80;;;;;;;;;;5072410;28;20515;-61
2021/09/26 08:46:50;;;;;;;4.73;4.23;;;;;;;;;;5072833;28;20427;-63
2021/09/26 08:49:17;;;;;;;5.17;4.67;;;;;;;;;;5072984;28;20536;-63
2021/09/26 08:51:45;;;;;;;6.13;5.07;;;;;;;;;;5073420;28;20971;-61
2021/09/26 08:54:13;;;;;;;5.27;4.77;;;;;;;;;;5077710;28;20444;-62
2021/09/26 08:56:41;;;;;;;7.30;4.47;;;;;;;;;;5076568;28;20451;-62
2021/09/26 08:59:09;;;;;;;5.20;4.70;;;;;;;;;;5076484;28;20443;-61
2021/09/26 09:01:38;;;;;;;5.00;4.50;;;;;;;;;;5076103;28;20867;-63
2021/09/26 09:04:06;;;;;;;4.70;4.30;;;;;;;;;;5076285;28;20504;-61
2021/09/26 09:06:43;;;;;;;6.33;4.50;;;;;;;;;;5076177;28;20463;-62
2021/09/26 09:09:14;;;;;;;4.80;4.30;;;;;;;;;;5076086;28;20479;-63
2021/09/26 09:11:42;;;;;;;4.60;4.20;;;;;;;;;;5076312;28;20467;-61
2021/09/26 09:14:09;;;;;;;4.23;3.80;;;;;;;;;;5076423;28;20504;-65
2021/09/26 09:16:37;;;;;;;6.87;4.80;;;;;;;;;;5076044;28;20500;-63
2021/09/26 09:19:05;;;;;;;4.67;4.27;;;;;;;;;;5076871;28;20444;-63
2021/09/26 09:21:33;;;;;;;5.03;4.13;;;;;;;;;;5076077;28;20464;-64
2021/09/26 09:24:20;;;;;;;4.70;4.20;;;;;;;;;;5075506;28;20496;-61
2021/09/26 09:26:48;;;;;;;5.43;4.93;;;;;;;;;;5075586;28;20431;-62
2021/09/26 09:29:16;;;;;;;4.40;4.00;;;;;;;;;;5075668;28;20552;-63
2021/09/26 09:31:52;;;;;;;4.10;3.70;;;;;;;;;;5075778;28;20475;-60
2021/09/26 09:34:29;;;;;;;5.17;4.67;;;;;;;;;;5075621;28;20447;-61
2021/09/26 09:37:10;;;;;;;5.57;4.60;;;;;;;;;;5075824;28;20530;-62
2021/09/26 09:39:37;;;;;;;5.33;4.67;;;;;;;;;;5076213;28;20523;-62
2021/09/26 09:42:16;;;;;;;5.27;4.77;;;;;;;;;;5077832;28;20517;-62
2021/09/26 09:44:45;;;;;;;4.57;4.17;;;;;;;;;;5080755;28;20463;-63
2021/09/26 09:47:14;;;;;;;5.30;4.33;;;;;;;;;;5082321;28;20486;-62
2021/09/26 09:49:53;;;;;;;5.93;4.87;;;;;;;;;;5080709;28;20994;-61
2021/09/26 09:52:20;;;;;;;6.00;4.17;;;;;;;;;;5079128;28;20489;-62
2021/09/26 09:54:50;;;;;;;5.03;4.53;;;;;;;;;;5088534;28;20477;-62
2021/09/26 09:57:18;;;;;;;4.53;4.13;;;;;;;;;;5080237;28;20840;-62
2021/09/26 09:59:47;;;;;;;5.30;4.73;;;;;;;;;;5076397;28;20443;-62
2021/09/26 10:02:16;;;;;;;4.53;4.13;;;;;;;;;;5075384;28;20464;-62
2021/09/26 10:04:44;;;;;;;4.70;4.30;;;;;;;;;;5075682;28;20448;-62
2021/09/26 10:07:30;;;;;;;4.53;4.20;;;;;;;;;;5074961;28;20517;-62
2021/09/26 10:09:58;;;;;;;9.80;5.17;;;;;;;;;;5075485;28;20464;-63
2021/09/26 10:12:26;;;;;;;4.70;4.30;;;;;;;;;;5075400;28;20467;-62
2021/09/26 10:14:55;;;;;;;5.40;4.60;;;;;;;;;;5076007;28;20559;-62
2021/09/26 10:17:24;;;;;;;5.57;5.07;;;;;;;;;;5075782;28;20458;-62
2021/09/26 10:19:52;;;;;;;5.60;4.90;;;;;;;;;;5079002;28;20443;-62
2021/09/26 10:22:19;;;;;;;6.93;6.23;;;;;;;;;;5077653;28;20455;-62
2021/09/26 10:24:48;;;;;;;21.00;17.40;;;;;;;;;;5076695;28;20481;-62
2021/09/26 10:27:20;;;;;;;9.47;7.53;;;;;;;;;;5075169;28;20876;-59
2021/09/26 10:29:47;;;;;;;12.43;11.13;;;;;;;;;;5075369;28;20811;-63
2021/09/26 10:32:15;;;;;;;16.90;15.10;;;;;;;;;;5075072;28;20521;-62
2021/09/26 10:34:43;;;;;;;10.47;9.40;;;;;;;;;;5075757;28;20485;-63
2021/09/26 10:37:12;;;;;;;5.00;4.50;;;;;;;;;;5076228;28;20505;-63
2021/09/26 10:39:39;;;;;;;5.20;4.70;;;;;;;;;;5075057;28;20450;-62
2021/09/26 10:42:09;;;;;;;5.93;5.03;;;;;;;;;;5074805;28;20971;-61
2021/09/26 10:44:39;;;;;;;10.23;4.67;;;;;;;;;;5074940;28;20440;-62
2021/09/26 10:47:12;;;;;;;5.37;4.60;;;;;;;;;;5075119;28;20505;-62
2021/09/26 10:49:40;;;;;;;6.73;5.70;;;;;;;;;;5074783;28;20505;-63
2021/09/26 10:52:22;;;;;;;6.03;5.53;;;;;;;;;;5074532;28;20878;-63
2021/09/26 10:54:51;;;;;;;6.87;5.97;;;;;;;;;;5075097;28;20485;-64
2021/09/26 10:57:23;;;;;;;5.77;5.20;;;;;;;;;;5074406;28;20439;-62
2021/09/26 10:59:52;;;;;;;5.37;4.87;;;;;;;;;;5073824;28;20439;-63
2021/09/26 11:02:35;;;;;;;5.73;5.00;;;;;;;;;;5074464;28;20459;-62
2021/09/26 11:05:04;;;;;;;6.30;5.30;;;;;;;;;;5074201;28;20439;-61
2021/09/26 11:07:32;;;;;;;6.07;5.47;;;;;;;;;;5073648;28;20528;-62
2021/09/26 11:10:01;;;;;;;6.63;4.83;;;;;;;;;;5073484;28;20475;-62
2021/09/26 11:12:38;;;;;;;5.40;4.90;;;;;;;;;;5073687;28;20521;-63
2021/09/26 11:15:07;;;;;;;5.37;4.90;;;;;;;;;;5073905;28;20427;-62
2021/09/26 11:17:45;;;;;;;5.40;5.00;;;;;;;;;;5073675;28;20440;-64
2021/09/26 11:20:13;;;;;;;6.30;5.70;;;;;;;;;;5073695;28;20995;-63
2021/09/26 11:22:40;;;;;;;10.47;9.20;;;;;;;;;;5073388;28;20861;-69
2021/09/26 11:25:09;;;;;;;6.73;5.40;;;;;;;;;;5073428;28;20447;-68
2021/09/26 11:27:38;;;;;;;8.07;7.23;;;;;;;;;;5076092;28;20444;-69
2021/09/26 11:30:11;;;;;;;10.13;9.10;;;;;;;;;;5077611;28;20802;-60
2021/09/26 11:32:38;;;;;;;6.80;5.60;;;;;;;;;;5073813;28;20479;-61
2021/09/26 11:35:08;;;;;;;5.03;4.63;;;;;;;;;;5073653;28;20503;-61
2021/09/26 11:37:55;;;;;;;6.03;5.37;;;;;;;;;;5073516;28;20440;-62
2021/09/26 11:40:29;;;;;;;6.30;5.67;;;;;;;;;;5074077;28;20518;-61
2021/09/26 11:42:57;;;;;;;5.60;5.10;;;;;;;;;;5074676;28;20511;-62
2021/09/26 11:45:31;;;;;;;6.23;5.63;;;;;;;;;;5076395;28;20493;-64
2021/09/26 11:47:59;;;;;;;5.63;5.13;;;;;;;;;;5074595;28;20555;-63
2021/09/26 11:50:30;;;;;;;5.90;5.40;;;;;;;;;;5073535;28;20480;-64
2021/09/26 11:52:57;;;;;;;7.27;5.13;;;;;;;;;;5073126;28;20519;-61
2021/09/26 11:55:30;;;;;;;5.57;5.07;;;;;;;;;;5072864;28;20443;-59
2021/09/26 11:57:58;;;;;;;4.90;4.50;;;;;;;;;;5072721;28;20424;-62
2021/09/26 12:00:26;;;;;;;4.63;4.23;;;;;;;;;;5072670;28;20521;-60
2021/09/26 12:02:53;;;;;;;5.23;4.73;;;;;;;;;;5073010;28;20892;-63
2021/09/26 12:05:35;;;;;;;4.67;4.27;;;;;;;;;;5072816;28;20451;-62
2021/09/26 12:08:03;;;;;;;6.60;5.27;;;;;;;;;;5072615;28;20601;-62
2021/09/26 12:10:41;;;;;;;5.40;4.90;;;;;;;;;;5072418;28;21058;-62
2021/09/26 12:13:11;;;;;;;5.20;4.27;;;;;;;;;;5073041;28;20427;-61
2021/09/26 12:15:39;;;;;;;4.90;4.40;;;;;;;;;;5072987;28;20447;-61
2021/09/26 12:18:06;;;;;;;5.50;4.77;;;;;;;;;;5073852;28;20489;-63
2021/09/26 12:20:33;;;;;;;5.73;4.70;;;;;;;;;;5072606;28;20459;-62
2021/09/26 12:23:01;;;;;;;5.97;4.87;;;;;;;;;;5073141;28;20857;-60
2021/09/26 12:25:31;;;;;;;5.60;4.70;;;;;;;;;;5073132;28;20454;-61
2021/09/26 12:28:00;;;;;;;5.63;4.37;;;;;;;;;;5072555;28;20842;-60
2021/09/26 12:30:29;;;;;;;6.47;5.10;;;;;;;;;;5076901;28;20556;-60
2021/09/26 12:32:58;;;;;;;6.33;4.90;;;;;;;;;;5076440;28;20447;-60
2021/09/26 12:35:31;;;;;;;8.60;4.90;;;;;;;;;;5076601;28;20455;-60
2021/09/26 12:38:03;;;;;;;11.80;4.70;;;;;;;;;;5076300;28;20501;-60
2021/09/26 12:40:33;;;;;;;5.47;3.90;;;;;;;;;;5076742;28;20463;-62
2021/09/26 12:43:02;;;;;;;5.00;4.40;;;;;;;;;;5076828;28;20497;-62
2021/09/26 12:45:36;;;;;;;5.90;5.07;;;;;;;;;;5077224;28;20497;-61
2021/09/26 12:48:03;;;;;;;7.07;4.67;;;;;;;;;;5076962;28;20440;-61
2021/09/26 12:50:31;;;;;;;5.50;4.80;;;;;;;;;;5076054;28;20901;-61
2021/09/26 12:52:59;;;;;;;4.33;4.00;;;;;;;;;;5076330;28;20592;-60
2021/09/26 12:55:28;;;;;;;4.90;4.37;;;;;;;;;;5076689;28;21012;-62
2021/09/26 12:57:57;;;;;;;5.00;4.57;;;;;;;;;;5077193;28;20995;-60
2021/09/26 13:00:30;;;;;;;5.37;4.40;;;;;;;;;;5076576;28;20447;-61
2021/09/26 13:02:59;;;;;;;5.53;4.50;;;;;;;;;;5075710;28;20431;-62
2021/09/26 13:05:29;;;;;;;6.27;5.07;;;;;;;;;;5076288;28;20496;-60
2021/09/26 13:08:00;;;;;;;5.50;4.53;;;;;;;;;;5075804;28;20463;-62
2021/09/26 13:10:28;;;;;;;5.43;4.10;;;;;;;;;;5075755;28;20510;-62
2021/09/26 13:12:56;;;;;;;4.20;3.90;;;;;;;;;;5075835;28;20504;-60
2021/09/26 13:15:32;;;;;;;5.93;4.13;;;;;;;;;;5075982;28;20443;-61
2021/09/26 13:18:14;;;;;;;5.40;4.03;;;;;;;;;;5076008;28;20427;-61
2021/09/26 13:20:42;;;;;;;6.13;4.30;;;;;;;;;;5075971;28;20460;-60
2021/09/26 13:23:26;;;;;;;7.20;4.10;;;;;;;;;;5076193;28;20447;-62
2021/09/26 13:25:54;;;;;;;4.40;4.00;;;;;;;;;;5075862;28;20451;-60
2021/09/26 13:28:24;;;;;;;5.97;4.43;;;;;;;;;;5075667;28;20443;-61
2021/09/26 13:31:03;;;;;;;5.00;3.87;;;;;;;;;;5075539;28;20540;-59
2021/09/26 13:33:34;;;;;;;5.93;4.13;;;;;;;;;;5075687;28;20428;-61
2021/09/26 13:36:06;;;;;;;8.53;5.30;;;;;;;;;;5075386;28;20449;-61
2021/09/26 13:38:34;;;;;;;8.00;4.67;;;;;;;;;;5075441;28;20482;-62
2021/09/26 13:41:19;;;;;;;5.70;4.63;;;;;;;;;;5074485;28;20468;-60
2021/09/26 13:43:57;;;;;;;5.33;4.80;;;;;;;;;;5075162;28;20420;-61
2021/09/26 13:46:24;;;;;;;7.33;4.97;;;;;;;;;;5075348;28;20851;-62
2021/09/26 13:48:52;;;;;;;4.60;4.20;;;;;;;;;;5074973;28;20439;-60
2021/09/26 13:51:19;;;;;;;7.40;4.47;;;;;;;;;;5075200;28;20537;-61
2021/09/26 13:53:46;;;;;;;4.60;3.67;;;;;;;;;;5074810;28;20938;-62
2021/09/26 13:56:13;;;;;;;5.47;4.87;;;;;;;;;;5074700;28;20505;-62
2021/09/26 13:58:41;;;;;;;8.40;4.87;;;;;;;;;;5081912;28;20505;-61
2021/09/26 14:01:11;;;;;;;4.80;3.77;;;;;;;;;;5075684;28;20874;-59
2021/09/26 14:03:39;;;;;;;7.27;4.70;;;;;;;;;;5075018;28;20512;-62
2021/09/26 14:06:06;;;;;;;5.77;4.60;;;;;;;;;;5075108;28;20493;-59
2021/09/26 14:08:33;;;;;;;7.20;4.90;;;;;;;;;;5074545;28;20455;-61
2021/09/26 14:11:01;;;;;;;6.43;4.17;;;;;;;;;;5074961;28;20482;-62
2021/09/26 14:13:30;;;;;;;6.60;3.90;;;;;;;;;;5074420;28;20448;-62
2021/09/26 14:15:58;;;;;;;7.13;4.57;;;;;;;;;;5074636;28;20818;-61
2021/09/26 14:18:27;;;;;;;4.33;3.97;;;;;;;;;;5074473;28;20443;-60
2021/09/26 14:20:54;;;;;;;7.27;4.77;;;;;;;;;;5074552;28;20471;-63
2021/09/26 14:23:21;;;;;;;5.80;4.97;;;;;;;;;;5074383;28;20512;-62
2021/09/26 14:25:48;;;;;;;5.23;4.60;;;;;;;;;;5074450;28;20447;-61
2021/09/26 14:28:16;;;;;;;6.27;4.10;;;;;;;;;;5074926;28;20443;-65
2021/09/26 14:30:43;;;;;;;9.47;4.53;;;;;;;;;;5075744;28;20624;-61
2021/09/26 14:33:11;;;;;;;8.40;4.77;;;;;;;;;;5075371;28;20799;-61
2021/09/26 14:35:39;;;;;;;5.00;4.20;;;;;;;;;;5076136;28;20439;-60
2021/09/26 14:38:07;;;;;;;5.63;4.23;;;;;;;;;;5077598;28;20940;-61
2021/09/26 14:40:35;;;;;;;8.07;4.77;;;;;;;;;;5077562;28;20459;-60
2021/09/26 14:43:02;;;;;;;6.20;4.83;;;;;;;;;;5076060;28;20935;-60
2021/09/26 14:45:30;;;;;;;7.17;5.13;;;;;;;;;;5077378;28;20443;-61
2021/09/26 14:47:58;;;;;;;5.30;4.80;;;;;;;;;;5076793;28;20455;-60
2021/09/26 14:50:25;;;;;;;5.20;4.40;;;;;;;;;;5075267;28;20519;-61
2021/09/26 14:52:54;;;;;;;6.07;4.70;;;;;;;;;;5074672;28;20451;-60